Time;durP1;ratioP1;P1;durP2;ratioP2;P2;SDS_P1;SDS_P2;PMS_P1;PMS_P2;Temp;Humidity;BMP_temperature;BMP_pressure;BME280_temperature;BME280_humidity;BME280_pressure;Samples;Min_cycle;Max_cycle;Signal;HPM_P1;HPM_P2
2021/10/19 00:01:05;;;;;;;8.38;5.62;;;;;;;7.22;82.63;100270.03;1691563;84;21141;-73
2021/10/19 00:03:31;;;;;;;5.35;4.28;;;;;;;7.20;82.79;100268.59;1669935;86;21117;-72
2021/10/19 00:05:58;;;;;;;5.33;4.00;;;;;;;7.15;82.93;100279.92;1669930;86;20982;-71
2021/10/19 00:08:25;;;;;;;7.45;5.65;;;;;;;7.11;83.27;100270.69;1678310;84;21003;-69
2021/10/19 00:10:51;;;;;;;8.40;5.40;;;;;;;7.08;83.46;100276.48;1666516;84;21091;-70
2021/10/19 00:13:19;;;;;;;7.65;4.75;;;;;;;7.06;83.75;100276.37;1669508;86;21057;-70
2021/10/19 00:15:47;;;;;;;5.65;4.72;;;;;;;7.04;83.91;100280.61;1670173;84;20984;-70
2021/10/19 00:18:14;;;;;;;11.45;4.60;;;;;;;7.01;83.99;100277.83;1689538;84;20911;-70
2021/10/19 00:20:41;;;;;;;7.72;5.70;;;;;;;6.98;84.11;100280.94;1642977;86;21066;-69
2021/10/19 00:23:08;;;;;;;6.92;4.53;;;;;;;6.92;84.32;100281.78;1669835;86;20959;-70
2021/10/19 00:25:35;;;;;;;5.90;4.87;;;;;;;6.87;84.57;100282.93;1650539;86;21058;-71
2021/10/19 00:28:02;;;;;;;10.13;4.72;;;;;;;6.83;84.76;100280.38;1671696;84;21577;-69
2021/10/19 00:30:37;;;;;;;7.15;4.80;;;;;;;6.80;84.91;100275.46;1669809;84;21494;-70
2021/10/19 00:33:03;;;;;;;10.23;4.80;;;;;;;6.80;85.12;100281.32;1670735;84;20975;-70
2021/10/19 00:35:30;;;;;;;8.33;5.15;;;;;;;6.77;85.16;100281.21;1637903;86;21057;-70
2021/10/19 00:37:57;;;;;;;6.28;5.00;;;;;;;6.75;85.27;100279.80;1665392;86;21044;-70
2021/10/19 00:40:24;;;;;;;7.08;4.55;;;;;;;6.70;85.35;100283.09;1668093;84;21180;-69
2021/10/19 00:42:52;;;;;;;10.58;5.47;;;;;;;6.67;85.47;100282.16;1683773;84;21026;-66
2021/10/19 00:45:19;;;;;;;5.12;4.30;;;;;;;6.64;85.62;100285.27;1658501;84;21012;-70
2021/10/19 00:47:48;;;;;;;5.28;4.62;;;;;;;6.63;85.72;100284.13;1669881;86;21570;-70
2021/10/19 00:50:16;;;;;;;6.85;4.80;;;;;;;6.59;85.84;100281.06;1642887;86;21046;-69
2021/10/19 00:52:44;;;;;;;6.03;5.00;;;;;;;6.56;85.89;100284.16;1616563;87;21071;-70
2021/10/19 00:55:11;;;;;;;7.85;5.85;;;;;;;6.51;85.94;100283.97;1647020;86;21457;-70
2021/10/19 00:57:39;;;;;;;7.08;5.30;;;;;;;6.45;86.10;100290.14;1610411;88;21034;-68
2021/10/19 01:00:08;;;;;;;9.48;5.70;;;;;;;6.40;86.27;100296.11;1642623;86;21513;-70
2021/10/19 01:02:35;;;;;;;5.30;4.67;;;;;;;6.38;86.50;100299.48;1619038;87;21080;-70
2021/10/19 01:05:03;;;;;;;4.85;4.45;;;;;;;6.36;86.72;100296.73;1658094;85;21175;-70
2021/10/19 01:07:29;;;;;;;7.42;5.55;;;;;;;6.34;86.88;100295.59;1628390;86;21003;-71
2021/10/19 01:09:56;;;;;;;5.58;5.08;;;;;;;6.32;86.89;100295.00;1639928;86;21019;-71
2021/10/19 01:12:22;;;;;;;5.03;4.35;;;;;;;6.27;86.96;100300.13;1646906;86;20963;-72
2021/10/19 01:14:50;;;;;;;6.85;4.85;;;;;;;6.22;87.08;100302.60;1669206;85;21077;-70
2021/10/19 01:17:17;;;;;;;5.25;4.50;;;;;;;6.17;87.29;100304.24;1670544;85;21978;-70
2021/10/19 01:19:49;;;;;;;9.35;5.83;;;;;;;6.13;87.49;100301.17;1646720;85;21042;-70
2021/10/19 01:22:15;;;;;;;8.05;6.72;;;;;;;6.12;87.64;100304.86;1670407;86;21261;-68
2021/10/19 01:24:43;;;;;;;5.85;5.22;;;;;;;6.10;87.85;100309.06;1670388;85;21035;-68
2021/10/19 01:27:11;;;;;;;7.05;5.70;;;;;;;6.08;87.96;100308.98;1643936;86;21035;-69
2021/10/19 01:29:38;;;;;;;7.22;5.85;;;;;;;6.02;88.03;100306.61;1660022;86;22059;-70
2021/10/19 01:32:05;;;;;;;6.65;5.97;;;;;;;5.95;88.26;100310.28;1670136;86;21016;-68
2021/10/19 01:34:35;;;;;;;6.08;5.10;;;;;;;5.89;88.62;100313.80;1670651;85;21503;-68
2021/10/19 01:37:04;;;;;;;6.83;5.70;;;;;;;5.84;88.84;100314.88;1623324;86;21015;-69
2021/10/19 01:39:32;;;;;;;5.95;5.00;;;;;;;5.81;89.05;100317.43;1666039;85;21035;-67
2021/10/19 01:42:00;;;;;;;7.25;5.33;;;;;;;5.76;89.33;100324.39;1647198;86;21296;-68
2021/10/19 01:44:26;;;;;;;8.18;5.72;;;;;;;5.70;89.45;100323.39;1670320;85;21071;-69
2021/10/19 01:46:53;;;;;;;8.88;5.75;;;;;;;5.62;89.57;100323.55;1648695;85;21044;-69
2021/10/19 01:49:19;;;;;;;7.03;5.90;;;;;;;5.54;89.73;100323.24;1640252;86;20979;-69
2021/10/19 01:51:46;;;;;;;6.12;5.53;;;;;;;5.49;89.93;100333.70;1670398;86;21133;-69
2021/10/19 01:54:12;;;;;;;8.23;6.58;;;;;;;5.44;90.17;100333.98;1643991;86;21110;-69
2021/10/19 01:56:40;;;;;;;8.73;6.58;;;;;;;5.39;90.32;100333.76;1670095;86;20992;-69
2021/10/19 01:59:06;;;;;;;7.25;5.78;;;;;;;5.36;90.41;100335.00;1642941;86;21087;-69
2021/10/19 02:01:37;;;;;;;7.53;5.47;;;;;;;5.28;90.54;100325.31;1669755;86;21054;-69
2021/10/19 02:04:04;;;;;;;6.30;5.45;;;;;;;5.25;90.69;100331.05;1641486;87;21002;-69
2021/10/19 02:06:30;;;;;;;7.17;5.85;;;;;;;5.23;90.95;100329.59;1670023;86;21268;-69
2021/10/19 02:08:57;;;;;;;8.63;6.75;;;;;;;5.23;91.10;100341.59;1693326;84;21102;-69
2021/10/19 02:11:23;;;;;;;8.83;6.60;;;;;;;5.21;91.25;100336.48;1693907;84;21048;-69
2021/10/19 02:13:50;;;;;;;6.15;5.53;;;;;;;5.21;91.35;100338.32;1693979;84;21021;-69
2021/10/19 02:16:16;;;;;;;9.28;6.95;;;;;;;5.18;91.33;100341.39;1681250;84;21102;-71
2021/10/19 02:18:42;;;;;;;9.13;6.62;;;;;;;5.15;91.44;100333.77;1678248;84;21145;-71
2021/10/19 02:21:09;;;;;;;8.73;6.35;;;;;;;5.11;91.55;100332.02;1670066;85;20977;-71
2021/10/19 02:23:35;;;;;;;10.00;6.60;;;;;;;5.08;91.72;100340.43;1621081;86;21066;-72
2021/10/19 02:26:02;;;;;;;8.63;6.85;;;;;;;5.08;91.87;100347.09;1670807;84;21020;-70
2021/10/19 02:28:29;;;;;;;8.23;6.50;;;;;;;5.07;92.00;100348.11;1653944;84;21083;-69
2021/10/19 02:30:55;;;;;;;11.18;6.90;;;;;;;5.07;92.03;100352.61;1673259;84;21201;-68
2021/10/19 02:33:22;;;;;;;7.72;5.72;;;;;;;5.06;92.04;100356.30;1697222;84;20991;-68
2021/10/19 02:35:48;;;;;;;7.85;6.83;;;;;;;5.02;92.05;100355.87;1658858;86;21110;-68
2021/10/19 02:38:15;;;;;;;10.30;6.80;;;;;;;5.00;92.19;100357.91;1650226;86;21075;-68
2021/10/19 02:40:41;;;;;;;8.53;6.58;;;;;;;5.00;92.33;100356.56;1645675;86;21058;-69
2021/10/19 02:43:07;;;;;;;10.03;6.97;;;;;;;5.00;92.32;100359.73;1669883;86;21298;-68
2021/10/19 02:45:33;;;;;;;8.25;6.50;;;;;;;4.99;92.21;100357.58;1669813;86;21028;-68
2021/10/19 02:48:00;;;;;;;17.37;6.53;;;;;;;4.96;92.23;100354.50;1643094;86;21063;-69
2021/10/19 02:50:26;;;;;;;9.53;6.12;;;;;;;4.93;92.21;100358.39;1641778;86;20926;-69
2021/10/19 02:52:52;;;;;;;10.78;6.40;;;;;;;4.91;92.27;100363.59;1642162;85;21006;-70
2021/10/19 02:55:19;;;;;;;8.60;5.53;;;;;;;4.88;92.39;100363.48;1647332;85;21103;-69
2021/10/19 02:57:47;;;;;;;11.97;6.33;;;;;;;4.88;92.50;100367.48;1659351;85;20978;-69
2021/10/19 03:00:15;;;;;;;7.35;5.90;;;;;;;4.88;92.46;100370.66;1647286;85;21055;-71
2021/10/19 03:02:41;;;;;;;7.53;5.70;;;;;;;4.82;92.58;100360.27;1647465;85;21058;-69
2021/10/19 03:05:09;;;;;;;7.78;6.05;;;;;;;4.80;92.62;100368.45;1672845;85;20944;-69
2021/10/19 03:07:35;;;;;;;8.18;7.37;;;;;;;4.79;92.65;100372.16;1672474;85;21055;-68
2021/10/19 03:10:05;;;;;;;10.60;7.00;;;;;;;4.77;92.72;100368.02;1673074;85;21116;-69
2021/10/19 03:12:33;;;;;;;6.00;5.08;;;;;;;4.75;92.74;100377.53;1672590;85;21008;-69
2021/10/19 03:14:59;;;;;;;6.97;6.15;;;;;;;4.75;92.74;100377.53;1673219;85;21002;-69
2021/10/19 03:17:25;;;;;;;8.58;6.42;;;;;;;4.73;92.63;100377.43;1646709;85;21577;-69
2021/10/19 03:19:52;;;;;;;7.10;5.78;;;;;;;4.70;92.54;100387.95;1660521;84;22066;-70
2021/10/19 03:22:18;;;;;;;6.35;5.67;;;;;;;4.65;92.56;100385.05;1682973;84;20971;-69
2021/10/19 03:24:44;;;;;;;7.20;6.35;;;;;;;4.64;92.50;100398.08;1647623;85;20971;-69
2021/10/19 03:27:11;;;;;;;6.90;6.30;;;;;;;4.61;92.49;100399.78;1674470;84;21635;-70
2021/10/19 03:29:37;;;;;;;9.08;5.95;;;;;;;4.58;92.46;100402.84;1665329;85;21025;-72
2021/10/19 03:32:04;;;;;;;8.48;6.05;;;;;;;4.54;92.42;100400.25;1672685;85;23386;-72
2021/10/19 03:34:32;;;;;;;9.38;5.60;;;;;;;4.49;92.37;100405.33;1647964;85;21065;-72
2021/10/19 03:36:58;;;;;;;6.28;5.65;;;;;;;4.46;92.63;100404.91;1673061;85;21001;-71
2021/10/19 03:39:24;;;;;;;9.93;6.70;;;;;;;4.46;92.63;100404.91;1650327;85;21049;-71
2021/10/19 03:41:51;;;;;;;12.10;7.45;;;;;;;4.45;92.78;100405.41;1648093;85;21063;-72
2021/10/19 03:44:17;;;;;;;9.25;6.10;;;;;;;4.42;92.69;100404.95;1667932;85;21150;-72
2021/10/19 03:46:43;;;;;;;7.72;5.25;;;;;;;4.42;92.69;100404.95;1667689;85;21016;-73
2021/10/19 03:49:10;;;;;;;7.55;6.55;;;;;;;4.44;92.76;100403.75;1654036;85;21038;-71
2021/10/19 03:51:36;;;;;;;9.75;5.78;;;;;;;4.43;92.75;100410.09;1645687;85;21041;-71
2021/10/19 03:54:02;;;;;;;13.40;5.62;;;;;;;4.45;92.76;100417.90;1671512;85;21557;-72
2021/10/19 03:56:28;;;;;;;8.83;5.92;;;;;;;4.47;92.68;100412.67;1642461;86;21174;-70
2021/10/19 03:58:55;;;;;;;10.30;7.08;;;;;;;4.49;92.53;100415.16;1676221;84;21036;-70
2021/10/19 04:01:22;;;;;;;8.30;5.70;;;;;;;4.46;92.35;100412.36;1640520;86;21098;-72
2021/10/19 04:03:48;;;;;;;7.50;5.78;;;;;;;4.45;92.21;100409.91;1648728;86;21039;-70
2021/10/19 04:06:14;;;;;;;7.40;5.62;;;;;;;4.45;92.18;100421.39;1670039;86;21083;-69
2021/10/19 04:08:40;;;;;;;8.05;5.67;;;;;;;4.41;92.13;100414.80;1681194;84;21496;-70
2021/10/19 04:11:07;;;;;;;7.00;5.30;;;;;;;4.44;92.02;100417.07;1674906;84;21042;-69
2021/10/19 04:13:33;;;;;;;6.15;5.55;;;;;;;4.42;91.85;100422.25;1634073;86;21609;-68
2021/10/19 04:16:00;;;;;;;7.37;6.05;;;;;;;4.37;91.75;100418.33;1641175;86;21068;-69
2021/10/19 04:18:28;;;;;;;7.05;5.50;;;;;;;4.36;91.64;100419.34;1670168;86;21013;-68
2021/10/19 04:20:55;;;;;;;7.67;5.75;;;;;;;4.32;91.65;100421.25;1642848;86;21049;-67
2021/10/19 04:23:22;;;;;;;8.60;5.42;;;;;;;4.32;91.65;100421.25;1654724;84;21014;-68
2021/10/19 04:25:50;;;;;;;7.75;6.50;;;;;;;4.29;91.64;100417.65;1659717;84;20988;-69
2021/10/19 04:28:16;;;;;;;10.38;6.42;;;;;;;4.27;91.55;100423.66;1686256;84;20963;-69
2021/10/19 04:30:45;;;;;;;8.55;6.08;;;;;;;4.24;91.52;100430.20;1669971;86;21079;-68
2021/10/19 04:33:11;;;;;;;8.38;6.15;;;;;;;4.23;91.55;100440.53;1649256;85;21532;-69
2021/10/19 04:35:38;;;;;;;14.07;7.78;;;;;;;4.23;91.59;100442.37;1641945;86;21124;-67
2021/10/19 04:38:05;;;;;;;11.68;7.53;;;;;;;4.23;91.58;100449.85;1650761;86;20991;-69
2021/10/19 04:40:32;;;;;;;10.82;7.72;;;;;;;4.23;91.54;100447.69;1693996;84;20975;-69
2021/10/19 04:43:00;;;;;;;13.00;6.75;;;;;;;4.21;91.43;100454.56;1694338;84;21011;-72
2021/10/19 04:45:27;;;;;;;10.28;7.45;;;;;;;4.17;91.42;100466.58;1667849;84;21083;-70
2021/10/19 04:47:57;;;;;;;7.97;5.90;;;;;;;4.14;91.42;100466.14;1685703;84;21115;-69
2021/10/19 04:50:25;;;;;;;10.65;6.85;;;;;;;4.12;91.48;100469.52;1668107;84;21581;-68
2021/10/19 04:52:51;;;;;;;10.48;7.33;;;;;;;4.11;91.54;100466.52;1694021;84;20998;-67
2021/10/19 04:55:18;;;;;;;7.50;6.80;;;;;;;4.10;91.62;100472.35;1704866;84;20985;-70
2021/10/19 04:57:44;;;;;;;12.37;7.45;;;;;;;4.09;91.60;100469.88;1688467;83;21046;-69
2021/10/19 05:00:12;;;;;;;14.87;6.53;;;;;;;4.07;91.56;100470.08;1706975;84;20967;-71
2021/10/19 05:02:44;;;;;;;11.22;7.60;;;;;;;4.07;91.56;100478.06;1684877;84;21078;-66
2021/10/19 05:05:11;;;;;;;7.08;6.37;;;;;;;4.08;91.55;100478.86;1707093;83;21518;-71
2021/10/19 05:07:37;;;;;;;8.98;6.42;;;;;;;4.09;91.56;100472.53;1657536;86;21052;-67
2021/10/19 05:10:05;;;;;;;7.00;6.30;;;;;;;4.09;91.54;100482.67;1686887;83;21109;-67
2021/10/19 05:12:31;;;;;;;13.78;7.12;;;;;;;4.10;91.46;100480.34;1723341;83;21492;-70
2021/10/19 05:14:57;;;;;;;9.20;6.35;;;;;;;4.10;91.38;100478.18;1689324;83;20985;-66
2021/10/19 05:17:24;;;;;;;11.05;6.72;;;;;;;4.10;91.35;100480.84;1682981;84;21023;-66
2021/10/19 05:19:54;;;;;;;12.15;7.50;;;;;;;4.12;91.31;100482.32;1685400;83;21094;-67
2021/10/19 05:22:22;;;;;;;11.25;6.65;;;;;;;4.14;91.33;100475.45;1683060;85;23112;-68
2021/10/19 05:24:49;;;;;;;10.38;7.15;;;;;;;4.15;91.30;100478.44;1676649;85;21054;-67
2021/10/19 05:27:16;;;;;;;10.18;6.65;;;;;;;4.14;91.24;100478.11;1689045;83;21047;-67
2021/10/19 05:29:42;;;;;;;9.45;7.28;;;;;;;4.15;91.18;100477.11;1693995;83;21603;-67
2021/10/19 05:32:09;;;;;;;9.53;6.33;;;;;;;4.17;91.15;100490.53;1661271;84;21533;-69
2021/10/19 05:34:35;;;;;;;8.83;7.47;;;;;;;4.19;91.09;100493.84;1683954;83;22778;-69
2021/10/19 05:37:03;;;;;;;8.70;7.08;;;;;;;4.23;91.14;100499.61;1685427;85;21565;-69
2021/10/19 05:39:31;;;;;;;11.60;6.83;;;;;;;4.27;91.08;100502.20;1664169;85;21026;-67
2021/10/19 05:41:59;;;;;;;8.00;7.15;;;;;;;4.32;91.04;100502.47;1661570;85;20998;-66
2021/10/19 05:44:27;;;;;;;13.23;6.80;;;;;;;4.35;90.92;100512.26;1700013;83;21074;-67
2021/10/19 05:46:54;;;;;;;11.30;7.15;;;;;;;4.39;90.79;100514.85;1674884;85;21960;-67
2021/10/19 05:49:20;;;;;;;8.23;6.05;;;;;;;4.43;90.62;100523.78;1685277;85;21509;-68
2021/10/19 05:51:48;;;;;;;7.90;6.37;;;;;;;4.46;90.42;100519.43;1694570;84;21518;-70
2021/10/19 05:54:16;;;;;;;8.13;7.30;;;;;;;4.47;90.24;100517.88;1693101;83;21026;-68
2021/10/19 05:56:44;;;;;;;8.60;5.97;;;;;;;4.53;90.19;100521.13;1675086;84;21561;-68
2021/10/19 05:59:10;;;;;;;9.98;6.80;;;;;;;4.59;89.91;100527.54;1685861;84;21557;-69
2021/10/19 06:01:36;;;;;;;10.95;6.83;;;;;;;4.62;89.50;100519.16;1672751;85;20978;-68
2021/10/19 06:04:03;;;;;;;8.43;7.05;;;;;;;4.61;89.13;100520.17;1672840;84;21492;-66
2021/10/19 06:06:29;;;;;;;11.53;5.90;;;;;;;4.60;88.78;100530.03;1671284;85;21026;-68
2021/10/19 06:08:56;;;;;;;8.13;6.58;;;;;;;4.63;88.80;100520.81;1678863;84;21502;-69
2021/10/19 06:11:23;;;;;;;11.68;7.70;;;;;;;4.67;88.52;100531.41;1662672;84;22366;-69
2021/10/19 06:13:49;;;;;;;10.75;6.42;;;;;;;4.71;88.32;100528.66;1700769;84;20963;-69
2021/10/19 06:16:16;;;;;;;9.88;6.50;;;;;;;4.74;87.84;100530.97;1674885;84;21054;-68
2021/10/19 06:18:42;;;;;;;12.25;6.10;;;;;;;4.76;87.53;100529.75;1700376;84;21017;-68
2021/10/19 06:21:08;;;;;;;9.60;7.17;;;;;;;4.76;87.01;100534.25;1667936;85;21024;-68
2021/10/19 06:23:36;;;;;;;9.75;6.53;;;;;;;4.77;86.85;100536.73;1640834;86;21761;-66
2021/10/19 06:26:05;;;;;;;8.78;6.50;;;;;;;4.80;86.67;100528.34;1680063;84;20999;-69
2021/10/19 06:28:32;;;;;;;9.48;7.10;;;;;;;4.87;86.56;100548.91;1664060;86;21532;-68
2021/10/19 06:30:58;;;;;;;5.53;5.03;;;;;;;4.93;86.23;100538.81;1668181;84;21094;-69
2021/10/19 06:33:24;;;;;;;7.47;4.97;;;;;;;4.95;85.58;100533.59;1686287;84;21042;-69
2021/10/19 06:35:51;;;;;;;9.85;7.03;;;;;;;4.97;85.23;100536.91;1642933;86;21284;-68
2021/10/19 06:38:17;;;;;;;6.78;5.72;;;;;;;4.99;84.91;100530.86;1619235;86;21020;-69
2021/10/19 06:40:44;;;;;;;7.12;5.45;;;;;;;5.00;84.79;100536.51;1642710;86;20957;-70
2021/10/19 06:43:10;;;;;;;7.37;6.33;;;;;;;5.10;84.66;100542.84;1628740;86;21034;-70
2021/10/19 06:45:38;;;;;;;10.90;5.30;;;;;;;5.18;84.50;100542.19;1670323;84;21738;-71
2021/10/19 06:48:05;;;;;;;8.95;5.72;;;;;;;5.26;84.06;100543.39;1674124;85;21121;-67
2021/10/19 06:50:31;;;;;;;9.88;5.37;;;;;;;5.33;83.54;100546.09;1632876;85;21034;-72
2021/10/19 06:52:57;;;;;;;8.55;5.50;;;;;;;5.38;83.09;100540.98;1681724;85;21100;-70
2021/10/19 06:55:24;;;;;;;8.63;5.45;;;;;;;5.43;83.04;100542.56;1683734;84;21625;-69
2021/10/19 06:57:50;;;;;;;8.08;5.08;;;;;;;5.49;82.68;100543.62;1690976;84;21524;-69
2021/10/19 07:00:18;;;;;;;8.33;5.83;;;;;;;5.51;82.21;100541.61;1684863;84;21305;-69
2021/10/19 07:02:47;;;;;;;6.33;5.00;;;;;;;5.56;82.16;100539.17;1669880;84;21019;-69
2021/10/19 07:05:14;;;;;;;5.95;5.10;;;;;;;5.64;81.95;100543.84;1692380;84;21067;-70
2021/10/19 07:07:41;;;;;;;5.20;4.50;;;;;;;5.75;81.41;100545.13;1670106;84;21023;-70
2021/10/19 07:10:10;;;;;;;6.58;4.50;;;;;;;5.81;80.62;100552.83;1670047;84;21086;-68
2021/10/19 07:12:39;;;;;;;7.33;4.67;;;;;;;5.85;80.41;100542.10;1691892;84;21095;-70
2021/10/19 07:15:07;;;;;;;5.35;4.62;;;;;;;5.92;80.15;100546.98;1690763;84;21036;-71
2021/10/19 07:17:34;;;;;;;6.47;4.53;;;;;;;5.95;79.51;100542.05;1691115;84;21130;-72
2021/10/19 07:20:00;;;;;;;6.78;5.00;;;;;;;6.02;79.28;100546.92;1670248;84;21050;-71
2021/10/19 07:22:30;;;;;;;6.40;4.35;;;;;;;6.10;78.95;100551.26;1691785;84;21170;-72
2021/10/19 07:24:55;;;;;;;7.30;4.78;;;;;;;6.20;78.81;100549.55;1681658;85;21765;-71
2021/10/19 07:27:23;;;;;;;5.55;4.45;;;;;;;6.32;78.41;100558.64;1685794;84;21511;-71
2021/10/19 07:29:49;;;;;;;6.47;5.50;;;;;;;6.39;77.30;100549.61;1670268;84;21034;-70
2021/10/19 07:32:16;;;;;;;12.80;4.92;;;;;;;6.45;76.89;100547.48;1669902;84;21554;-72
2021/10/19 07:34:42;;;;;;;5.67;4.28;;;;;;;6.50;76.54;100553.04;1669213;84;21083;-73
2021/10/19 07:37:09;;;;;;;7.15;3.83;;;;;;;6.54;75.98;100555.61;1692295;84;22168;-71
2021/10/19 07:39:37;;;;;;;4.15;3.60;;;;;;;6.58;75.14;100556.03;1670010;84;21112;-70
2021/10/19 07:42:03;;;;;;;8.23;4.40;;;;;;;6.61;74.89;100547.62;1692191;83;21081;-69
2021/10/19 07:44:31;;;;;;;4.30;3.20;;;;;;;6.67;74.71;100537.94;1669833;84;21117;-69
2021/10/19 07:46:58;;;;;;;5.33;3.15;;;;;;;6.76;74.33;100540.22;1670053;84;21018;-70
2021/10/19 07:49:25;;;;;;;6.95;4.00;;;;;;;6.86;73.78;100545.98;1692235;84;21088;-67
2021/10/19 07:51:51;;;;;;;4.60;3.62;;;;;;;6.98;73.06;100544.88;1670579;84;20979;-70
2021/10/19 07:54:18;;;;;;;10.35;4.87;;;;;;;7.10;72.36;100563.27;1665030;86;21008;-69
2021/10/19 07:56:44;;;;;;;5.08;4.05;;;;;;;7.19;71.94;100542.00;1665338;86;21061;-70
2021/10/19 07:59:11;;;;;;;8.25;4.42;;;;;;;7.27;71.78;100547.13;1665130;86;20980;-69
2021/10/19 08:01:37;;;;;;;6.40;4.33;;;;;;;7.35;70.98;100544.23;1665125;86;21162;-69
2021/10/19 08:04:04;;;;;;;5.58;4.97;;;;;;;7.43;70.68;100551.24;1675455;84;21058;-68
2021/10/19 08:06:30;;;;;;;9.95;5.55;;;;;;;7.50;70.46;100553.38;1669332;84;21033;-70
2021/10/19 08:08:57;;;;;;;8.10;4.97;;;;;;;7.56;69.71;100549.05;1692996;84;21060;-70
2021/10/19 08:11:23;;;;;;;6.83;4.20;;;;;;;7.63;69.85;100557.87;1693106;84;21020;-70
2021/10/19 08:13:53;;;;;;;5.42;3.83;;;;;;;7.71;67.89;100555.81;1669315;84;21205;-71
2021/10/19 08:16:19;;;;;;;4.40;3.75;;;;;;;7.76;67.31;100581.45;1694374;84;21009;-71
2021/10/19 08:18:45;;;;;;;6.15;4.47;;;;;;;7.79;66.52;100570.81;1694586;84;21092;-71
2021/10/19 08:21:11;;;;;;;5.17;4.60;;;;;;;7.84;66.67;100566.48;1694697;84;20930;-70
2021/10/19 08:23:38;;;;;;;5.40;3.72;;;;;;;7.91;66.78;100558.95;1693514;84;21027;-74
2021/10/19 08:26:04;;;;;;;6.15;3.60;;;;;;;7.98;66.09;100568.59;1694268;84;21157;-70
2021/10/19 08:28:31;;;;;;;6.40;4.10;;;;;;;8.04;64.89;100571.78;1694545;84;21097;-71
2021/10/19 08:30:58;;;;;;;3.35;3.00;;;;;;;8.10;64.91;100570.11;1694601;84;21559;-68
2021/10/19 08:33:24;;;;;;;9.88;6.17;;;;;;;8.18;64.59;100557.81;1670127;83;21549;-69
2021/10/19 08:35:51;;;;;;;6.60;3.77;;;;;;;8.28;64.71;100579.10;1669178;84;21012;-69
2021/10/19 08:38:18;;;;;;;3.77;3.30;;;;;;;8.38;64.11;100573.31;1693104;84;21806;-70
2021/10/19 08:40:44;;;;;;;5.15;3.08;;;;;;;8.45;63.85;100592.03;1693094;84;21066;-69
2021/10/19 08:43:11;;;;;;;9.45;4.05;;;;;;;8.51;63.47;100583.97;1693713;84;21487;-71
2021/10/19 08:45:37;;;;;;;4.00;2.50;;;;;;;8.59;62.77;100581.53;1670267;83;21047;-71
2021/10/19 08:48:07;;;;;;;5.10;3.42;;;;;;;8.68;61.31;100592.34;1693977;84;21164;-68
2021/10/19 08:50:32;;;;;;;3.20;2.42;;;;;;;8.70;60.95;100597.78;1669381;84;21169;-71
2021/10/19 08:52:58;;;;;;;3.25;2.05;;;;;;;8.70;60.53;100614.39;1669458;84;20905;-72
2021/10/19 08:55:25;;;;;;;7.62;2.70;;;;;;;8.65;60.73;100599.45;1692263;84;21035;-69
2021/10/19 08:57:51;;;;;;;3.25;2.95;;;;;;;8.61;60.82;100604.95;1691010;84;21040;-69
2021/10/19 09:00:18;;;;;;;3.05;1.90;;;;;;;8.59;61.14;100605.16;1696275;84;21013;-71
2021/10/19 09:02:47;;;;;;;3.62;2.37;;;;;;;8.60;60.79;100604.64;1685068;84;21092;-70
2021/10/19 09:05:22;;;;;;;2.17;1.98;;;;;;;8.64;59.87;100606.67;1676381;84;21071;-71
2021/10/19 09:07:59;;;;;;;2.37;2.17;;;;;;;8.71;59.89;100597.27;1674278;84;20974;-71
2021/10/19 09:10:26;;;;;;;5.17;2.33;;;;;;;8.74;59.15;100599.50;1696387;84;21002;-69
2021/10/19 09:12:59;;;;;;;3.20;2.20;;;;;;;8.77;59.58;100603.12;1677662;83;21002;-70
2021/10/19 09:15:32;;;;;;;2.30;2.10;;;;;;;8.81;60.19;100592.25;1699528;83;21117;-72
2021/10/19 09:18:26;;;;;;;3.10;1.92;;;;;;;8.84;59.91;100595.83;1696287;84;21042;-70
2021/10/19 09:20:55;;;;;;;4.33;3.17;;;;;;;8.89;59.68;100596.01;1665816;86;20988;-69
2021/10/19 09:23:25;;;;;;;3.37;1.90;;;;;;;8.92;59.68;100605.50;1666491;86;21011;-70
2021/10/19 09:25:52;;;;;;;3.62;2.05;;;;;;;8.92;58.09;100591.54;1642785;86;21051;-70
2021/10/19 09:28:37;;;;;;;2.15;1.92;;;;;;;8.96;58.15;100617.44;1642722;86;21031;-69
2021/10/19 09:31:04;;;;;;;2.47;1.67;;;;;;;8.98;57.11;100600.59;1666140;86;21617;-70
2021/10/19 09:33:30;;;;;;;2.20;2.00;;;;;;;9.00;56.57;100589.13;1648062;85;21035;-68
2021/10/19 09:36:01;;;;;;;3.05;1.85;;;;;;;9.02;56.76;100597.25;1620173;87;21039;-70
2021/10/19 09:38:28;;;;;;;6.47;2.00;;;;;;;9.01;55.07;100586.24;1666195;85;21020;-69
2021/10/19 09:40:57;;;;;;;3.10;1.87;;;;;;;8.99;53.88;100611.11;1688742;85;21215;-71
2021/10/19 09:43:26;;;;;;;2.25;1.60;;;;;;;8.95;53.79;100586.27;1695411;84;20904;-70
2021/10/19 09:45:56;;;;;;;5.05;1.60;;;;;;;8.94;54.21;100607.43;1693278;84;21475;-72
2021/10/19 09:48:31;;;;;;;3.47;1.62;;;;;;;8.96;54.35;100594.64;1711580;83;21048;-71
2021/10/19 09:50:55;;;;;;;;;;;;;;;8.99;54.16;100599.04;1712904;83;20972;-72
2021/10/19 09:53:24;;;;;;;2.27;1.92;;;;;;;9.03;53.60;100620.37;1710050;83;21243;-70
2021/10/19 09:55:52;;;;;;;1.95;1.82;;;;;;;9.05;53.43;100607.56;1644054;86;21030;-71
2021/10/19 09:58:19;;;;;;;7.50;2.62;;;;;;;9.06;53.30;100603.03;1661101;86;21104;-71
2021/10/19 10:00:45;;;;;;;2.30;2.10;;;;;;;9.08;53.75;100596.91;1690605;83;21059;-74
2021/10/19 10:03:13;;;;;;;2.83;1.90;;;;;;;9.08;52.89;100615.17;1671920;85;21106;-71
2021/10/19 10:05:40;;;;;;;4.40;1.50;;;;;;;9.11;53.00;100589.78;1676645;84;21059;-71
2021/10/19 10:08:11;;;;;;;2.77;1.95;;;;;;;9.15;52.58;100593.67;1639181;86;20950;-70
2021/10/19 10:10:38;;;;;;;4.12;2.25;;;;;;;9.12;52.27;100594.91;1659670;84;21587;-71
2021/10/19 10:13:07;;;;;;;3.08;1.80;;;;;;;9.12;52.50;100611.53;1695141;84;21039;-74
2021/10/19 10:15:35;;;;;;;3.15;2.00;;;;;;;9.11;52.73;100599.97;1666419;85;21072;-73
2021/10/19 10:18:05;;;;;;;2.20;1.98;;;;;;;9.15;52.22;100619.16;1694617;84;21136;-73
2021/10/19 10:20:36;;;;;;;2.58;1.95;;;;;;;9.17;51.82;100609.02;1672529;84;21071;-79
2021/10/19 10:23:21;;;;;;;3.77;1.98;;;;;;;9.19;51.48;100593.02;1693605;84;21529;-76
2021/10/19 10:25:52;;;;;;;3.58;2.87;;;;;;;9.23;51.54;100593.91;1692113;84;20955;-76
2021/10/19 10:28:30;;;;;;;2.85;2.37;;;;;;;9.28;50.60;100590.88;1681452;84;21280;-76
2021/10/19 10:31:02;;;;;;;4.53;1.90;;;;;;;9.35;50.92;100594.30;1657748;86;21904;-74
2021/10/19 10:33:38;;;;;;;3.47;1.90;;;;;;;9.43;50.87;100592.70;1669605;84;21039;-74
2021/10/19 10:36:08;;;;;;;2.33;2.12;;;;;;;9.51;49.91;100571.45;1661792;86;20971;-76
2021/10/19 10:38:36;;;;;;;4.65;2.17;;;;;;;9.59;49.98;100579.24;1664037;84;20982;-75
2021/10/19 10:41:12;;;;;;;4.25;2.20;;;;;;;9.65;50.44;100574.30;1691753;84;20951;-81
2021/10/19 10:43:38;;;;;;;5.10;2.12;;;;;;;9.75;50.56;100579.98;1689931;84;21084;-71
2021/10/19 10:46:14;;;;;;;1.95;1.75;;;;;;;9.87;50.29;100566.13;1695929;84;20987;-71
2021/10/19 10:48:41;;;;;;;2.58;2.10;;;;;;;10.01;49.83;100589.64;1683521;84;20925;-72
2021/10/19 10:51:10;;;;;;;2.12;1.75;;;;;;;10.11;49.01;100593.16;1692243;84;21118;-73
2021/10/19 10:53:43;;;;;;;6.72;2.55;;;;;;;10.20;48.42;100590.48;1678700;84;21083;-71
2021/10/19 10:56:11;;;;;;;3.52;2.25;;;;;;;10.27;47.88;100583.14;1710074;83;21365;-79
2021/10/19 10:58:39;;;;;;;2.37;2.15;;;;;;;10.32;46.24;100596.73;1709835;83;20964;-81
2021/10/19 11:01:23;;;;;;;2.35;1.92;;;;;;;10.33;46.69;100570.97;1704244;83;21627;-76
2021/10/19 11:03:54;;;;;;;1.92;1.70;;;;;;;10.38;46.86;100591.80;1675937;85;21018;-76
2021/10/19 11:06:23;;;;;;;7.47;2.35;;;;;;;10.39;46.52;100580.83;1675661;84;21124;-74
2021/10/19 11:09:00;;;;;;;4.15;1.90;;;;;;;10.44;45.88;100562.67;1675884;85;21719;-71
2021/10/19 11:11:37;;;;;;;1.92;1.42;;;;;;;10.50;45.27;100587.31;1693878;84;21679;-69
2021/10/19 11:14:10;;;;;;;5.87;1.72;;;;;;;10.52;43.89;100585.20;1675319;84;21090;-76
2021/10/19 11:16:45;;;;;;;1.65;1.47;;;;;;;10.53;43.75;100573.41;1666330;85;20963;-76
2021/10/19 11:19:31;;;;;;;3.22;1.98;;;;;;;10.52;43.71;100577.13;1691070;84;21510;-73
2021/10/19 11:22:01;;;;;;;4.47;1.75;;;;;;;10.50;43.20;100581.94;1668227;84;21300;-73
2021/10/19 11:24:29;;;;;;;1.77;1.67;;;;;;;10.47;43.12;100581.03;1698471;83;20944;-73
2021/10/19 11:26:55;;;;;;;5.28;1.90;;;;;;;10.44;42.97;100570.22;1684775;84;22187;-72
2021/10/19 11:29:23;;;;;;;2.98;1.92;;;;;;;10.44;43.11;100597.63;1695108;84;21444;-78
2021/10/19 11:31:51;;;;;;;4.97;2.47;;;;;;;10.43;43.26;100571.26;1674271;84;21160;-77
2021/10/19 11:34:17;;;;;;;2.65;1.85;;;;;;;10.45;43.42;100567.01;1670584;84;21098;-81